createdAt,value
2018-04-04T00:02:34.323Z,9.50
2018-04-04T00:17:33.290Z,9.33
2018-04-04T00:32:34.006Z,7.80
2018-04-04T00:47:33.944Z,8.87
2018-04-04T01:02:34.529Z,8.33
2018-04-04T01:17:34.299Z,7.43
2018-04-04T01:32:36.405Z,6.43
2018-04-04T01:47:34.123Z,5.40
2018-04-04T02:02:34.530Z,5.60
2018-04-04T02:17:35.782Z,6.23
2018-04-04T02:32:35.676Z,5.70
2018-04-04T02:47:34.621Z,6.17
2018-04-04T03:02:38.252Z,7.17
2018-04-04T03:17:34.434Z,7.53
2018-04-04T03:32:34.728Z,6.70
2018-04-04T03:47:34.882Z,7.33
2018-04-04T04:02:37.251Z,8.27
2018-04-04T04:17:36.170Z,8.93
2018-04-04T04:32:35.174Z,10.33
2018-04-04T04:47:34.693Z,13.77
2018-04-04T05:02:36.056Z,10.43
2018-04-04T05:17:44.075Z,10.60
2018-04-04T05:32:33.957Z,11.80
2018-04-04T05:47:35.346Z,12.50
2018-04-04T06:02:34.746Z,12.30
2018-04-04T06:17:34.678Z,14.40
2018-04-04T06:32:34.645Z,14.47
2018-04-04T06:47:34.626Z,14.63
2018-04-04T07:02:34.931Z,17.43
2018-04-04T07:17:34.891Z,14.60
2018-04-04T07:32:34.834Z,18.30
2018-04-04T07:47:34.782Z,15.47
2018-04-04T08:02:37.302Z,15.23
2018-04-04T08:17:38.137Z,16.40
2018-04-04T08:32:37.157Z,15.47
2018-04-04T08:47:37.089Z,14.40
2018-04-04T09:02:34.463Z,13.93
2018-04-04T09:17:37.682Z,15.37
2018-04-04T09:32:34.851Z,13.37
2018-04-04T09:47:37.119Z,13.10
2018-04-04T10:02:38.674Z,12.77
2018-04-04T10:17:35.243Z,11.70
2018-04-04T10:32:34.378Z,8.50
2018-04-04T10:47:35.537Z,8.07
2018-04-04T11:02:37.839Z,6.80
2018-04-04T11:17:34.647Z,5.83
2018-04-04T11:32:34.693Z,5.17
2018-04-04T11:47:34.719Z,4.57
2018-04-04T12:02:36.122Z,4.07
2018-04-04T12:17:35.051Z,3.77
2018-04-04T12:32:35.093Z,3.50
2018-04-04T12:47:36.767Z,3.53
2018-04-04T13:02:35.319Z,3.87
2018-04-04T13:17:37.033Z,4.17
2018-04-04T13:32:35.230Z,3.70
2018-04-04T13:47:35.206Z,8.43
2018-04-04T14:02:39.642Z,3.83
2018-04-04T14:17:36.250Z,2.93
2018-04-04T14:32:34.447Z,3.50
2018-04-04T14:47:36.390Z,3.90
2018-04-04T15:02:36.798Z,4.30
2018-04-04T15:17:34.559Z,3.40
2018-04-04T15:32:34.501Z,4.03
2018-04-04T15:47:33.488Z,5.10
2018-04-04T16:02:35.052Z,4.70
2018-04-04T16:17:34.802Z,9.80
2018-04-04T16:32:34.792Z,3.17
2018-04-04T16:47:36.773Z,2.40
2018-04-04T17:02:35.268Z,2.63
2018-04-04T17:17:35.246Z,3.10
2018-04-04T17:32:35.230Z,3.00
2018-04-04T17:47:35.220Z,6.80
2018-04-04T18:02:36.409Z,8.73
2018-04-04T18:17:36.606Z,10.70
2018-04-04T18:32:36.495Z,10.27
2018-04-04T18:47:34.450Z,8.70
2018-04-04T19:02:34.902Z,9.90
2018-04-04T19:17:34.818Z,11.03
2018-04-04T19:32:34.875Z,10.13
2018-04-04T19:47:36.738Z,11.80
2018-04-04T20:17:35.068Z,16.90
2018-04-04T20:32:34.996Z,17.40
2018-04-04T20:47:37.864Z,19.67
2018-04-04T21:02:34.461Z,19.80
2018-04-04T21:17:35.230Z,19.30
2018-04-04T21:32:38.098Z,16.67
2018-04-04T21:47:35.027Z,16.90
2018-04-04T22:02:34.659Z,16.47
2018-04-04T22:17:36.389Z,15.93
2018-04-04T22:32:34.314Z,16.57
2018-04-04T22:47:36.328Z,15.90
2018-04-04T23:02:36.956Z,14.37
2018-04-04T23:17:34.640Z,15.70
2018-04-04T23:32:34.597Z,13.73
2018-04-04T23:47:34.531Z,12.90
